Terminal Aerodrome Forecast
Issued by NWS Springfield, MO

Home | Current Version | Previous Version | Text Only | Print | Product List | Glossary On
Versions: 1 2 3 4 5 6 7 8 9 10 11 12 13
612
FTUS43 KSGF 251120
TAFSGF
TAF
KSGF 251120Z 2512/2612 16013KT P6SM SCT250 WS020/20045KT
     FM251400 16020G31KT P6SM FEW250
     FM260000 17012KT P6SM SCT140
     FM260600 17010KT P6SM VCSH OVC040
     FM260800 17010KT P6SM SHRA VCTS OVC025CB=

USA.gov is the U.S. government's official web portal to all federal, state and local government web resources and services.